createdAt,value
2022-09-20T00:01:10.556Z,99266.06
2022-09-20T00:03:39.760Z,99271.25
2022-09-20T00:06:08.182Z,99278.94
2022-09-20T00:08:35.447Z,99276.03
2022-09-20T00:11:07.172Z,99271.69
2022-09-20T00:13:35.584Z,99270.94
2022-09-20T00:16:06.678Z,99271.69
2022-09-20T00:18:33.469Z,99274.53
2022-09-20T00:21:00.175Z,99268.81
2022-09-20T00:23:26.775Z,99267.25
2022-09-20T00:25:58.289Z,99271.69
2022-09-20T00:28:25.384Z,99270.09
2022-09-20T00:30:53.209Z,99270.25
2022-09-20T00:33:20.626Z,99276.25
2022-09-20T00:35:47.265Z,99275.41
2022-09-20T00:38:15.159Z,99279.63
2022-09-20T00:40:43.859Z,99270.94
2022-09-20T00:43:18.424Z,99279.63
2022-09-20T00:45:48.885Z,99276.88
2022-09-20T00:48:18.469Z,99273.28
2022-09-20T00:50:51.475Z,99276.03
2022-09-20T00:53:24.684Z,99276.75
2022-09-20T00:55:58.100Z,99270.31
2022-09-20T00:58:27.579Z,99281.38
2022-09-20T01:00:55.275Z,99277.91
2022-09-20T01:03:25.280Z,99290.28
2022-09-20T01:05:54.645Z,99279.34
2022-09-20T01:08:24.598Z,99284.53
2022-09-20T01:10:52.259Z,99288.03
2022-09-20T01:13:18.852Z,99286.97
2022-09-20T01:15:47.708Z,99280.75
2022-09-20T01:18:16.622Z,99279.75
2022-09-20T01:20:45.857Z,99282.31
2022-09-20T01:23:27.646Z,99277.84
2022-09-20T01:26:13.226Z,99282.09
2022-09-20T01:28:42.276Z,99282.69
2022-09-20T01:31:17.022Z,99286.28
2022-09-20T01:33:54.237Z,99281.84
2022-09-20T01:36:26.756Z,99279.94
2022-09-20T01:39:14.596Z,99281.00
2022-09-20T01:42:08.990Z,99281.25
2022-09-20T01:44:57.479Z,99276.81
2022-09-20T01:48:01.748Z,99283.03
2022-09-20T01:51:06.834Z,99285.69
2022-09-20T01:53:49.110Z,99276.47
2022-09-20T01:56:33.697Z,99284.59
2022-09-20T01:59:31.561Z,99282.19
2022-09-20T02:02:01.659Z,99285.34
2022-09-20T02:04:49.965Z,99289.22
2022-09-20T02:07:34.839Z,99282.50
2022-09-20T02:10:04.289Z,99286.28
2022-09-20T02:12:53.125Z,99282.69
2022-09-20T02:15:57.030Z,99281.00
2022-09-20T02:18:57.856Z,99283.53
2022-09-20T02:21:36.640Z,99281.00
2022-09-20T02:24:18.150Z,99283.66
2022-09-20T02:27:06.513Z,99288.22
2022-09-20T02:29:48.671Z,99286.75
2022-09-20T02:32:24.980Z,99286.75
2022-09-20T02:35:05.546Z,99288.22
2022-09-20T02:38:11.532Z,99277.66
2022-09-20T02:41:05.723Z,99279.31
2022-09-20T02:43:41.406Z,99274.03
2022-09-20T02:46:24.311Z,99276.66
2022-09-20T02:49:17.203Z,99273.06
2022-09-20T02:51:54.809Z,99276.56
2022-09-20T02:54:42.484Z,99277.41
2022-09-20T02:58:02.378Z,99280.16
2022-09-20T03:00:44.703Z,99279.56
2022-09-20T03:03:20.360Z,99281.25
2022-09-20T03:06:14.773Z,99275.00
2022-09-20T03:09:11.309Z,99281.69
2022-09-20T03:11:44.259Z,99285.28
2022-09-20T03:14:18.987Z,99285.28
2022-09-20T03:16:52.482Z,99281.91
2022-09-20T03:19:33.461Z,99279.25
2022-09-20T03:22:26.584Z,99279.59
2022-09-20T03:25:14.735Z,99277.72
2022-09-20T03:28:11.416Z,99293.03
2022-09-20T03:30:58.919Z,99293.34
2022-09-20T03:33:31.396Z,99292.16
2022-09-20T03:36:01.250Z,99282.13
2022-09-20T03:38:39.939Z,99288.47
2022-09-20T03:41:18.652Z,99282.13
2022-09-20T03:44:05.720Z,99283.09
2022-09-20T03:46:35.016Z,99291.00
2022-09-20T03:49:46.227Z,99283.28
2022-09-20T03:52:26.899Z,99288.56
2022-09-20T03:55:05.672Z,99282.34
2022-09-20T03:57:39.595Z,99285.09
2022-09-20T04:00:16.895Z,99282.56
2022-09-20T04:03:03.726Z,99291.13
2022-09-20T04:05:57.787Z,99287.44
2022-09-20T04:08:48.739Z,99288.56
2022-09-20T07:07:19.312Z,99407.88
2022-09-20T07:09:46.022Z,99416.84
2022-09-20T07:12:12.744Z,99407.53
2022-09-20T07:14:40.067Z,99409.19
2022-09-20T07:17:06.707Z,99412.81
2022-09-20T07:19:33.986Z,99417.53
2022-09-20T07:22:00.633Z,99412.22
2022-09-20T07:24:27.258Z,99411.44
2022-09-20T07:27:02.729Z,99414.13
2022-09-20T07:29:29.753Z,99415.09
2022-09-20T07:31:57.215Z,99405.50
2022-09-20T07:34:24.057Z,99424.19
2022-09-20T07:36:51.393Z,99422.88
2022-09-20T07:39:18.503Z,99428.22
2022-09-20T07:41:50.774Z,99431.63
2022-09-20T07:44:21.538Z,99425.88
2022-09-20T07:47:10.245Z,99433.03
2022-09-20T07:49:37.510Z,99433.91
2022-09-20T07:52:04.768Z,99434.66
2022-09-20T07:54:31.574Z,99436.72
2022-09-20T07:56:58.131Z,99433.81
2022-09-20T07:59:26.006Z,99441.78
2022-09-20T08:01:52.616Z,99441.44
2022-09-20T08:04:19.171Z,99438.63
2022-09-20T08:06:46.376Z,99443.56
2022-09-20T08:09:13.820Z,99444.19
2022-09-20T08:11:42.167Z,99463.25
2022-09-20T08:14:13.315Z,99452.53
2022-09-20T08:16:43.189Z,99452.41
2022-09-20T08:19:15.518Z,99454.13
2022-09-20T08:21:42.207Z,99456.03
2022-09-20T08:24:08.746Z,99463.63
2022-09-20T08:26:35.976Z,99463.03
2022-09-20T08:29:05.326Z,99458.22
2022-09-20T08:31:37.258Z,99467.38
2022-09-20T08:34:06.692Z,99462.06
2022-09-20T08:36:36.644Z,99460.00
2022-09-20T08:42:13.541Z,99479.16
2022-09-20T08:44:47.321Z,99475.09
2022-09-20T08:47:43.075Z,99475.78
2022-09-20T08:50:11.758Z,99481.34
2022-09-20T08:52:42.096Z,99479.91
2022-09-20T08:55:18.486Z,99479.91
2022-09-20T08:57:49.432Z,99477.75
2022-09-20T09:00:22.237Z,99472.69
2022-09-20T09:02:54.282Z,99473.53
2022-09-20T09:05:41.208Z,99483.06
2022-09-20T09:08:16.715Z,99486.91
2022-09-20T09:10:47.755Z,99477.50
2022-09-20T09:13:39.723Z,99481.38
2022-09-20T09:16:13.228Z,99482.34
2022-09-20T09:18:43.402Z,99483.66
2022-09-20T09:21:19.415Z,99482.59
2022-09-20T09:24:00.229Z,99478.13
2022-09-20T09:26:27.403Z,99479.44
2022-09-20T09:29:24.021Z,99489.72
2022-09-20T09:31:53.006Z,99487.41
2022-09-20T09:34:27.725Z,99482.34
2022-09-20T09:36:55.524Z,99481.84
2022-09-20T09:39:29.686Z,99487.53
2022-09-20T09:41:57.304Z,99488.03
2022-09-20T09:44:33.951Z,99486.91
2022-09-20T09:47:01.042Z,99488.50
2022-09-20T09:49:36.470Z,99487.53
2022-09-20T09:52:15.772Z,99483.06
2022-09-20T09:54:51.469Z,99479.88
2022-09-20T09:57:27.145Z,99483.75
2022-09-20T10:00:18.410Z,99487.34
2022-09-20T10:03:05.040Z,99481.78
2022-09-20T10:05:48.918Z,99486.59
2022-09-20T10:08:42.940Z,99483.94
2022-09-20T10:11:44.636Z,99484.06
2022-09-20T10:14:22.555Z,99487.81
2022-09-20T10:17:10.074Z,99486.59
2022-09-20T10:19:36.591Z,99489.78
2022-09-20T10:23:00.312Z,99487.34
2022-09-20T10:26:12.005Z,99488.09
2022-09-20T10:29:08.562Z,99485.19
2022-09-20T10:32:00.402Z,99498.22
2022-09-20T10:34:43.019Z,99486.38
2022-09-20T10:37:21.608Z,99479.47
2022-09-20T10:40:07.894Z,99476.19
2022-09-20T10:42:56.109Z,99478.81
2022-09-20T10:45:59.123Z,99479.97
2022-09-20T10:48:41.058Z,99486.97
2022-09-20T10:51:19.445Z,99490.94
2022-09-20T10:54:20.046Z,99490.06
2022-09-20T10:56:56.310Z,99485.88
2022-09-20T10:59:38.208Z,99491.81
2022-09-20T11:02:26.048Z,99499.50
2022-09-20T11:05:18.707Z,99493.69
2022-09-20T11:08:16.356Z,99500.50
2022-09-20T11:10:49.606Z,99495.44
2022-09-20T11:13:19.473Z,99505.72
2022-09-20T11:15:52.756Z,99500.84
2022-09-20T11:18:25.340Z,99502.78
2022-09-20T11:21:07.635Z,99503.38
2022-09-20T11:23:46.496Z,99498.94
2022-09-20T11:26:38.045Z,99502.66
2022-09-20T11:29:32.531Z,99504.50
2022-09-20T11:32:20.458Z,99509.66
2022-09-20T11:35:03.135Z,99506.34
2022-09-20T11:37:37.863Z,99502.13
2022-09-20T11:40:22.632Z,99495.84
2022-09-20T11:42:50.979Z,99497.66
2022-09-20T11:45:18.004Z,99491.69
2022-09-20T11:47:55.721Z,99493.38
2022-09-20T11:50:47.323Z,99488.34
2022-09-20T11:53:55.484Z,99489.50
2022-09-20T11:56:32.220Z,99494.19
2022-09-20T11:59:02.331Z,99491.94
2022-09-20T12:01:30.148Z,99491.69
2022-09-20T12:04:27.842Z,99492.06
2022-09-20T12:06:47.838Z,99495.44
2022-09-20T12:09:49.041Z,99491.06
2022-09-20T12:12:30.793Z,99501.03
2022-09-20T12:15:00.557Z,99497.41
2022-09-20T12:18:08.880Z,99496.06
2022-09-20T12:20:35.936Z,99501.63
2022-09-20T12:23:39.718Z,99493.13
2022-09-20T12:26:22.980Z,99494.63
2022-09-20T12:28:54.940Z,99491.81
2022-09-20T12:31:21.541Z,99490.78
2022-09-20T12:34:12.232Z,99489.00
2022-09-20T12:37:05.131Z,99483.31
2022-09-20T12:39:38.042Z,99479.31
2022-09-20T12:42:33.145Z,99485.22
2022-09-20T12:45:17.682Z,99484.16
2022-09-20T12:47:54.683Z,99475.81
2022-09-20T12:50:41.391Z,99476.66
2022-09-20T12:53:17.264Z,99471.06
2022-09-20T12:55:56.332Z,99474.16
2022-09-20T12:58:25.616Z,99475.25
2022-09-20T13:01:01.186Z,99472.66
2022-09-20T13:03:36.611Z,99469.38
2022-09-20T13:06:06.669Z,99477.78
2022-09-20T13:09:02.756Z,99479.19
2022-09-20T13:11:43.805Z,99471.19
2022-09-20T13:14:13.420Z,99463.66
2022-09-20T13:16:42.796Z,99468.47
2022-09-20T13:19:23.223Z,99462.28
2022-09-20T13:21:56.232Z,99474.28
2022-09-20T13:24:24.522Z,99474.44
2022-09-20T13:26:54.266Z,99474.84
2022-09-20T13:29:34.198Z,99478.91
2022-09-20T13:32:26.383Z,99488.75
2022-09-20T13:35:22.476Z,99484.91
2022-09-20T13:37:56.171Z,99485.38
2022-09-20T13:40:39.806Z,99486.78
2022-09-20T13:43:28.356Z,99489.28
2022-09-20T13:46:00.965Z,99491.59
2022-09-20T13:48:29.451Z,99491.00
2022-09-20T13:50:57.617Z,99488.69
2022-09-20T13:53:42.758Z,99481.25
2022-09-20T13:56:30.918Z,99487.59
2022-09-20T13:59:00.984Z,99486.72
2022-09-20T14:01:36.839Z,99490.44
2022-09-20T14:04:16.079Z,99485.22
2022-09-20T14:06:43.144Z,99488.19
2022-09-20T14:09:24.016Z,99489.84
2022-09-20T14:11:51.026Z,99489.28
2022-09-20T14:14:22.194Z,99494.66
2022-09-20T14:16:50.338Z,99498.88
2022-09-20T14:19:20.253Z,99492.69
2022-09-20T14:21:48.129Z,99496.63
2022-09-20T14:24:14.658Z,99494.63
2022-09-20T14:26:42.958Z,99486.75
2022-09-20T14:29:29.614Z,99489.06
2022-09-20T14:31:59.338Z,99483.69
2022-09-20T14:34:26.228Z,99490.28
2022-09-20T14:37:05.551Z,99484.41
2022-09-20T14:39:33.479Z,99484.97
2022-09-20T14:42:00.256Z,99485.38
2022-09-20T14:44:33.021Z,99487.09
2022-09-20T14:47:00.326Z,99476.06
2022-09-20T14:49:26.854Z,99477.97
2022-09-20T14:51:54.350Z,99491.03
2022-09-20T14:54:29.913Z,99477.81
2022-09-20T14:56:58.866Z,99485.38
2022-09-20T14:59:27.936Z,99480.44
2022-09-20T15:01:54.533Z,99483.97
2022-09-20T15:04:22.919Z,99488.19
2022-09-20T15:06:50.622Z,99484.56
2022-09-20T15:09:19.551Z,99489.88
2022-09-20T15:11:46.288Z,99496.91
2022-09-20T15:14:12.842Z,99502.91
2022-09-20T15:16:39.459Z,99508.81
2022-09-20T15:19:08.083Z,99508.41
2022-09-20T15:21:34.783Z,99514.63
2022-09-20T15:24:01.622Z,99515.59
2022-09-20T15:26:28.271Z,99519.31
2022-09-20T15:28:54.902Z,99515.38
2022-09-20T15:31:21.529Z,99523.69
2022-09-20T15:33:48.215Z,99524.22
2022-09-20T15:36:14.816Z,99528.84
2022-09-20T15:38:41.403Z,99536.72
2022-09-20T15:41:08.283Z,99535.38
2022-09-20T15:43:34.926Z,99536.34
2022-09-20T15:46:18.518Z,99535.06
2022-09-20T15:48:45.305Z,99538.81
2022-09-20T15:51:12.981Z,99525.28
2022-09-20T15:53:43.617Z,99533.88
2022-09-20T15:56:21.088Z,99530.22
2022-09-20T15:59:00.859Z,99536.53
2022-09-20T16:01:29.364Z,99527.94
2022-09-20T16:03:56.443Z,99536.66
2022-09-20T16:06:24.129Z,99535.09
2022-09-20T16:08:51.752Z,99540.25
2022-09-20T16:11:22.864Z,99537.13
2022-09-20T16:13:54.786Z,99535.50
2022-09-20T16:16:21.602Z,99538.31
2022-09-20T16:19:07.189Z,99539.06
2022-09-20T16:21:34.546Z,99546.00
2022-09-20T16:24:01.561Z,99537.19
2022-09-20T16:26:29.185Z,99545.66
2022-09-20T16:28:56.318Z,99543.25
2022-09-20T16:31:32.834Z,99553.31
2022-09-20T16:34:00.387Z,99553.19
2022-09-20T16:36:27.690Z,99552.03
2022-09-20T16:38:58.515Z,99565.50
2022-09-20T16:41:27.056Z,99555.50
2022-09-20T16:43:53.829Z,99564.75
2022-09-20T16:46:27.201Z,99567.19
2022-09-20T16:48:59.350Z,99578.91
2022-09-20T16:51:31.942Z,99575.78
2022-09-20T16:53:58.977Z,99577.47
2022-09-20T16:56:28.845Z,99583.00
2022-09-20T16:58:56.284Z,99575.41
2022-09-20T17:01:23.286Z,99580.56
2022-09-20T17:03:49.923Z,99586.63
2022-09-20T17:06:16.833Z,99587.84
2022-09-20T17:08:44.972Z,99586.25
2022-09-20T17:11:15.109Z,99595.19
2022-09-20T17:13:44.095Z,99603.16
2022-09-20T17:16:15.121Z,99606.38
2022-09-20T17:18:43.305Z,99605.41
2022-09-20T17:21:15.433Z,99616.75
2022-09-20T17:23:48.686Z,99621.03
2022-09-20T17:26:20.397Z,99619.09
2022-09-20T17:28:49.795Z,99623.03
2022-09-20T17:31:19.653Z,99629.88
2022-09-20T17:33:46.623Z,99626.00
2022-09-20T17:36:17.753Z,99631.00
2022-09-20T17:38:45.962Z,99643.03
2022-09-20T17:41:15.323Z,99635.13
2022-09-20T17:43:43.893Z,99638.53
2022-09-20T17:46:14.433Z,99637.06
2022-09-20T17:48:42.506Z,99646.72
2022-09-20T17:51:12.658Z,99655.97
2022-09-20T17:53:39.514Z,99658.06
2022-09-20T17:56:06.134Z,99659.69
2022-09-20T17:58:35.693Z,99669.88
2022-09-20T18:01:03.183Z,99665.66
2022-09-20T18:03:30.205Z,99671.38
2022-09-20T18:05:56.807Z,99674.47
2022-09-20T18:08:23.432Z,99682.53
2022-09-20T18:10:58.541Z,99683.06
2022-09-20T18:13:27.742Z,99684.31
2022-09-20T18:15:54.755Z,99684.19
2022-09-20T18:18:21.861Z,99685.69
2022-09-20T18:20:49.098Z,99693.31
2022-09-20T18:23:15.816Z,99692.69
2022-09-20T18:26:00.931Z,99695.63
2022-09-20T18:28:28.258Z,99698.47
2022-09-20T18:31:05.317Z,99705.78
2022-09-20T18:33:32.374Z,99707.69
2022-09-20T18:36:03.689Z,99701.63
2022-09-20T18:38:31.227Z,99711.78
2022-09-20T18:41:00.376Z,99702.16
2022-09-20T18:43:31.629Z,99709.34
2022-09-20T18:45:58.969Z,99710.00
2022-09-20T18:48:32.631Z,99712.09
2022-09-20T18:51:04.393Z,99714.22
2022-09-20T18:53:32.816Z,99719.69
2022-09-20T18:56:18.149Z,99716.72
2022-09-20T18:58:45.111Z,99724.84
2022-09-20T19:01:20.019Z,99722.19
2022-09-20T19:04:17.314Z,99732.88
2022-09-20T19:07:08.476Z,99743.56
2022-09-20T19:10:03.255Z,99726.19
2022-09-20T19:12:59.242Z,99723.19
2022-09-20T19:15:57.929Z,99728.69
2022-09-20T19:18:30.600Z,99742.09
2022-09-20T19:21:22.480Z,99743.78
2022-09-20T19:24:10.041Z,99745.72
2022-09-20T19:26:38.666Z,99753.06
2022-09-20T19:29:18.283Z,99749.47
2022-09-20T19:31:46.806Z,99755.16
2022-09-20T19:34:19.836Z,99751.66
2022-09-20T19:36:58.612Z,99754.97
2022-09-20T19:40:02.508Z,99758.34
2022-09-20T19:42:56.589Z,99767.03
2022-09-20T19:45:55.755Z,99761.00
2022-09-20T19:48:39.107Z,99768.28
2022-09-20T19:51:10.932Z,99762.06
2022-09-20T19:53:38.279Z,99763.84
2022-09-20T19:56:14.435Z,99767.63
2022-09-20T19:58:43.352Z,99768.03
2022-09-20T20:01:10.509Z,99768.28
2022-09-20T20:03:37.513Z,99768.66
2022-09-20T20:06:25.607Z,99778.56
2022-09-20T20:09:07.669Z,99771.03
2022-09-20T20:11:37.969Z,99781.59
2022-09-20T20:14:15.072Z,99769.50
2022-09-20T20:17:06.674Z,99780.66
2022-09-20T20:19:51.264Z,99775.75
2022-09-20T20:22:30.420Z,99775.38
2022-09-20T20:24:57.538Z,99772.72
2022-09-20T20:27:28.230Z,99771.97
2022-09-20T20:29:55.695Z,99766.88
2022-09-20T20:32:22.820Z,99779.31
2022-09-20T20:34:49.760Z,99782.91
2022-09-20T20:37:18.221Z,99779.78
2022-09-20T20:39:44.859Z,99786.47
2022-09-20T20:42:12.959Z,99778.94
2022-09-20T20:44:40.096Z,99780.31
2022-09-20T20:47:07.043Z,99796.34
2022-09-20T20:49:33.905Z,99805.06
2022-09-20T20:52:04.944Z,99793.66
2022-09-20T20:54:32.506Z,99799.59
2022-09-20T20:56:59.578Z,99799.72
2022-09-20T20:59:26.560Z,99805.00
2022-09-20T21:01:53.340Z,99806.94
2022-09-20T21:04:20.096Z,99808.06
2022-09-20T21:06:46.870Z,99809.00
2022-09-20T21:09:13.623Z,99822.38
2022-09-20T21:11:44.756Z,99827.25
2022-09-20T21:14:12.845Z,99819.50
2022-09-20T21:16:45.108Z,99833.63
2022-09-20T21:19:15.130Z,99829.66
2022-09-20T21:21:43.361Z,99836.09
2022-09-20T21:24:13.172Z,99833.72
2022-09-20T21:26:40.367Z,99834.94
2022-09-20T21:29:11.185Z,99832.38
2022-09-20T21:31:40.326Z,99845.03
2022-09-20T21:34:08.546Z,99843.44
2022-09-20T21:36:36.808Z,99842.75
2022-09-20T21:39:04.926Z,99843.78
2022-09-20T21:41:34.104Z,99844.78
2022-09-20T21:44:04.890Z,99842.00
2022-09-20T21:46:35.888Z,99850.91
2022-09-20T21:49:05.251Z,99842.75
2022-09-20T21:51:33.143Z,99855.34
2022-09-20T21:54:01.759Z,99847.66
2022-09-20T21:56:31.419Z,99859.25
2022-09-20T21:58:58.490Z,99855.03
2022-09-20T22:01:26.860Z,99848.84
2022-09-20T22:04:01.439Z,99859.25
2022-09-20T22:06:35.824Z,99861.94
2022-09-20T22:09:08.503Z,99861.09
2022-09-20T22:11:39.181Z,99864.50
2022-09-20T22:14:07.051Z,99868.06
2022-09-20T22:16:36.854Z,99866.53
2022-09-20T22:19:04.881Z,99868.22
2022-09-20T22:21:37.181Z,99871.03
2022-09-20T22:24:06.981Z,99872.91
2022-09-20T22:26:36.474Z,99868.56
2022-09-20T22:29:03.990Z,99873.22
2022-09-20T22:31:32.385Z,99877.75
2022-09-20T22:34:04.977Z,99875.84
2022-09-20T22:36:34.339Z,99880.38
2022-09-20T22:39:01.363Z,99881.22
2022-09-20T22:41:28.311Z,99876.19
2022-09-20T22:43:55.268Z,99872.78
2022-09-20T22:46:23.834Z,99865.81
2022-09-20T22:48:50.905Z,99865.81
2022-09-20T22:51:26.043Z,99874.47
2022-09-20T22:53:52.814Z,99869.97
2022-09-20T22:56:25.372Z,99862.41
2022-09-20T22:58:53.942Z,99876.34
2022-09-20T23:01:26.447Z,99871.09
2022-09-20T23:03:56.129Z,99874.47
2022-09-20T23:06:29.448Z,99874.25
2022-09-20T23:08:58.612Z,99871.44
2022-09-20T23:11:26.125Z,99872.28
2022-09-20T23:13:58.209Z,99877.56
2022-09-20T23:16:30.411Z,99878.16
2022-09-20T23:18:58.644Z,99878.00
2022-09-20T23:21:26.110Z,99886.78
2022-09-20T23:23:57.427Z,99884.13
2022-09-20T23:26:25.631Z,99881.41
2022-09-20T23:29:04.714Z,99889.47
2022-09-20T23:31:34.641Z,99897.31
2022-09-20T23:34:03.580Z,99899.16
2022-09-20T23:36:32.499Z,99898.31
2022-09-20T23:38:59.842Z,99894.91
2022-09-20T23:41:27.739Z,99893.97
2022-09-20T23:43:54.805Z,99900.94
2022-09-20T23:46:23.173Z,99900.03
2022-09-20T23:48:52.624Z,99902.41
2022-09-20T23:51:20.724Z,99892.19
2022-09-20T23:53:47.460Z,99907.00
2022-09-20T23:56:15.145Z,99897.31
2022-09-20T23:58:44.021Z,99893.56
